Terminal Aerodrome Forecast
Issued by NWS

Home | Current Version | Previous Version | Text Only | Print | Product List | Glossary On
Versions: 1 2 3 4 5 6 7 8 9 10 11 12 13 14 15 16 17 18 19 20 21 22 23 24 25 26 27 28 29 30 31 32 33 34 35 36 37 38 39 40 41
277
FTUS45 KBOU 241130
TAFAPA
TAF
KAPA 241130Z 2412/2512 VRB04KT P6SM FEW040
     FM241500 04006KT P6SM SCT050
     FM242000 07010KT P6SM SCT060 BKN100
     FM250100 12011KT P6SM BKN070
     FM250600 17009KT P6SM BKN060=

USA.gov is the U.S. government's official web portal to all federal, state and local government web resources and services.